createdAt,value
2023-02-06T00:01:25.094Z,38.17
2023-02-06T00:03:57.600Z,41.55
2023-02-06T00:06:29.589Z,41.33
2023-02-06T00:09:02.257Z,38.13
2023-02-06T00:11:35.463Z,42.00
2023-02-06T00:14:07.654Z,39.42
2023-02-06T00:16:39.677Z,43.97
2023-02-06T00:19:11.743Z,50.50
2023-02-06T00:21:43.889Z,45.05
2023-02-06T00:24:16.026Z,35.78
2023-02-06T00:26:48.131Z,43.28
2023-02-06T00:29:20.163Z,43.58
2023-02-06T00:31:52.266Z,50.72
2023-02-06T00:34:24.621Z,40.42
2023-02-06T00:36:56.720Z,43.97
2023-02-06T00:39:28.998Z,45.47
2023-02-06T00:42:01.102Z,47.08
2023-02-06T00:44:33.786Z,42.10
2023-02-06T00:47:05.827Z,40.28
2023-02-06T00:49:37.763Z,40.58
2023-02-06T00:52:09.908Z,38.67
2023-02-06T00:54:41.870Z,41.60
2023-02-06T00:57:13.836Z,44.33
2023-02-06T00:59:46.090Z,45.72
2023-02-06T01:02:18.084Z,41.53
2023-02-06T01:04:50.177Z,42.65
2023-02-06T01:07:22.180Z,42.00
2023-02-06T01:09:54.249Z,38.30
2023-02-06T01:12:26.264Z,40.20
2023-02-06T01:14:58.524Z,44.60
2023-02-06T01:17:33.029Z,42.45
2023-02-06T01:20:07.155Z,44.00
2023-02-06T01:22:41.907Z,45.05
2023-02-06T01:25:13.976Z,42.67
2023-02-06T01:27:46.177Z,53.67
2023-02-06T01:30:18.353Z,45.85
2023-02-06T01:32:50.428Z,41.65
2023-02-06T01:35:22.547Z,42.80
2023-02-06T01:37:54.692Z,40.90
2023-02-06T01:40:26.731Z,41.83
2023-02-06T01:42:58.726Z,45.53
2023-02-06T01:45:41.298Z,46.70
2023-02-06T01:48:19.379Z,44.17
2023-02-06T01:50:58.673Z,49.85
2023-02-06T01:53:32.327Z,42.92
2023-02-06T01:56:07.065Z,48.53
2023-02-06T01:58:44.569Z,43.13
2023-02-06T02:01:20.978Z,45.70
2023-02-06T02:03:56.452Z,43.92
2023-02-06T02:06:35.628Z,49.25
2023-02-06T02:09:08.195Z,45.55
2023-02-06T02:11:41.911Z,43.50
2023-02-06T02:14:15.539Z,42.25
2023-02-06T02:17:10.149Z,43.63
2023-02-06T02:20:28.392Z,42.85
2023-02-06T02:23:26.508Z,45.47
2023-02-06T02:26:46.268Z,45.70
2023-02-06T02:29:57.333Z,41.00
2023-02-06T02:33:07.734Z,48.65
2023-02-06T02:36:05.467Z,48.45
2023-02-06T02:39:14.543Z,48.20
2023-02-06T02:42:14.422Z,48.75
2023-02-06T02:45:39.290Z,47.22
2023-02-06T02:48:25.301Z,50.47
2023-02-06T02:51:01.531Z,45.90
2023-02-06T02:53:33.800Z,54.33
2023-02-06T02:56:21.023Z,41.33
2023-02-06T02:59:23.810Z,48.92
2023-02-06T03:02:12.620Z,40.95
2023-02-06T03:05:05.733Z,41.92
2023-02-06T03:08:06.502Z,48.38
2023-02-06T03:11:13.852Z,48.60
2023-02-06T03:14:04.345Z,40.47
2023-02-06T03:16:51.965Z,50.42
2023-02-06T03:19:35.658Z,44.92
2023-02-06T03:22:14.428Z,40.85
2023-02-06T03:24:57.053Z,41.10
2023-02-06T03:27:31.230Z,43.00
2023-02-06T03:30:06.168Z,43.50
2023-02-06T03:32:47.268Z,42.97
2023-02-06T03:35:25.810Z,42.38
2023-02-06T03:38:04.049Z,47.58
2023-02-06T03:40:40.980Z,41.63
2023-02-06T03:43:18.876Z,41.65
2023-02-06T03:46:00.423Z,41.10
2023-02-06T03:48:40.479Z,44.10
2023-02-06T03:51:21.184Z,46.83
2023-02-06T03:54:00.910Z,40.78
2023-02-06T03:56:52.815Z,38.38
2023-02-06T03:59:27.787Z,47.72
2023-02-06T04:02:03.626Z,50.63
2023-02-06T04:04:42.302Z,41.63
2023-02-06T04:07:18.621Z,46.97
2023-02-06T04:09:55.537Z,41.83
2023-02-06T04:12:27.586Z,39.28
2023-02-06T04:14:59.520Z,43.70
2023-02-06T04:17:46.446Z,44.72
2023-02-06T04:20:23.963Z,41.70
2023-02-06T04:22:56.387Z,39.08
2023-02-06T04:25:29.265Z,42.40
2023-02-06T04:28:16.627Z,44.72
2023-02-06T04:30:48.753Z,46.80
2023-02-06T04:33:20.897Z,43.90
2023-02-06T04:35:53.035Z,41.08
2023-02-06T04:38:25.071Z,45.42
2023-02-06T04:41:05.899Z,38.72
2023-02-06T04:43:38.517Z,43.78
2023-02-06T04:46:10.514Z,42.45
2023-02-06T04:48:42.684Z,38.90
2023-02-06T04:51:14.719Z,41.78
2023-02-06T04:53:46.833Z,42.58
2023-02-06T04:56:21.266Z,41.63
2023-02-06T04:58:53.431Z,42.05
2023-02-06T05:01:25.930Z,44.97
2023-02-06T05:03:57.902Z,40.35
2023-02-06T05:06:31.198Z,45.13
2023-02-06T05:09:04.385Z,42.70
2023-02-06T05:11:36.508Z,43.30
2023-02-06T05:14:08.496Z,45.00
2023-02-06T05:16:40.518Z,43.47
2023-02-06T05:19:12.664Z,37.78
2023-02-06T05:21:44.650Z,43.53
2023-02-06T05:24:16.820Z,38.67
2023-02-06T05:27:02.187Z,39.58
2023-02-06T05:29:34.218Z,40.85
2023-02-06T05:32:06.334Z,38.88
2023-02-06T05:34:38.337Z,36.25
2023-02-06T05:37:10.702Z,35.55
2023-02-06T05:39:42.924Z,34.97
2023-02-06T05:42:14.889Z,34.88
2023-02-06T05:44:46.849Z,35.90
2023-02-06T05:47:19.096Z,37.55
2023-02-06T05:49:51.434Z,36.70
2023-02-06T05:52:23.607Z,39.72
2023-02-06T05:54:55.671Z,36.58
2023-02-06T05:57:27.718Z,35.78
2023-02-06T05:59:59.732Z,35.35
2023-02-06T06:02:32.217Z,38.38
2023-02-06T06:05:04.880Z,38.15
2023-02-06T06:07:37.353Z,37.95
2023-02-06T06:10:09.769Z,35.20
2023-02-06T06:12:41.792Z,38.03
2023-02-06T06:15:13.836Z,37.60
2023-02-06T06:17:45.974Z,39.03
2023-02-06T06:20:18.024Z,34.15
2023-02-06T06:22:50.173Z,31.50
2023-02-06T06:25:22.241Z,35.55
2023-02-06T06:27:54.183Z,40.13
2023-02-06T06:30:26.329Z,34.67
2023-02-06T06:32:58.547Z,35.40
2023-02-06T06:35:30.661Z,39.38
2023-02-06T06:38:02.834Z,33.42
2023-02-06T06:40:34.905Z,34.33
2023-02-06T06:43:06.934Z,35.00
2023-02-06T06:45:39.425Z,33.80
2023-02-06T06:48:11.645Z,34.35
2023-02-06T06:50:43.836Z,36.15
2023-02-06T06:53:16.121Z,35.22
2023-02-06T06:55:48.184Z,31.17
2023-02-06T06:58:21.108Z,40.45
2023-02-06T07:00:53.732Z,31.85
2023-02-06T07:03:29.967Z,33.47
2023-02-06T07:06:02.286Z,31.45
2023-02-06T07:08:40.439Z,35.65
2023-02-06T07:11:15.347Z,30.27
2023-02-06T07:13:48.069Z,31.88
2023-02-06T07:16:20.260Z,27.50
2023-02-06T07:18:52.392Z,26.02
2023-02-06T07:21:24.457Z,27.98
2023-02-06T07:23:56.586Z,23.80
2023-02-06T07:26:28.898Z,25.85
2023-02-06T07:29:01.044Z,29.13
2023-02-06T07:31:33.090Z,23.80
2023-02-06T07:34:05.270Z,24.92
2023-02-06T07:36:38.022Z,22.42
2023-02-06T07:39:10.008Z,25.25
2023-02-06T07:41:42.843Z,24.75
2023-02-06T07:44:17.258Z,20.85
2023-02-06T07:46:49.422Z,21.80
2023-02-06T07:49:23.995Z,30.42
2023-02-06T07:51:56.373Z,23.35
2023-02-06T07:54:28.600Z,28.05
2023-02-06T07:57:00.886Z,24.13
2023-02-06T07:59:32.974Z,24.73
2023-02-06T08:02:05.102Z,27.02
2023-02-06T08:04:37.695Z,23.85
2023-02-06T08:07:14.861Z,25.33
2023-02-06T08:09:48.202Z,22.10
2023-02-06T08:12:20.244Z,21.15
2023-02-06T08:14:52.514Z,24.20
2023-02-06T08:17:24.823Z,20.58
2023-02-06T08:20:02.791Z,28.77
2023-02-06T08:22:35.443Z,20.05
2023-02-06T08:25:08.834Z,26.55
2023-02-06T08:27:41.155Z,21.52
2023-02-06T08:30:13.787Z,20.23
2023-02-06T08:32:45.923Z,20.35
2023-02-06T08:35:18.093Z,21.40
2023-02-06T08:37:50.147Z,20.80
2023-02-06T08:40:22.360Z,20.85
2023-02-06T08:42:54.317Z,19.60
2023-02-06T08:45:26.416Z,19.98
2023-02-06T08:47:58.704Z,15.93
2023-02-06T08:50:30.857Z,18.35
2023-02-06T08:53:03.240Z,17.70
2023-02-06T08:55:35.284Z,17.50
2023-02-06T08:58:07.741Z,18.08
2023-02-06T09:00:39.772Z,18.98
2023-02-06T09:03:12.094Z,16.85
2023-02-06T09:05:44.416Z,19.48
2023-02-06T09:08:17.062Z,17.00
2023-02-06T09:10:49.129Z,15.85
2023-02-06T09:13:21.603Z,15.75
2023-02-06T09:16:05.633Z,17.17
2023-02-06T09:18:38.113Z,15.55
2023-02-06T09:21:17.240Z,22.75
2023-02-06T09:23:54.203Z,20.13
2023-02-06T09:26:31.354Z,16.80
2023-02-06T09:29:09.544Z,15.70
2023-02-06T09:31:43.395Z,12.30
2023-02-06T09:34:15.595Z,13.82
2023-02-06T09:36:47.832Z,14.05
2023-02-06T09:39:20.148Z,13.73
2023-02-06T09:42:11.501Z,13.98
2023-02-06T09:45:07.185Z,13.55
2023-02-06T09:47:52.360Z,12.90
2023-02-06T09:50:55.871Z,13.23
2023-02-06T09:54:00.118Z,18.85
2023-02-06T09:56:46.319Z,10.27
2023-02-06T10:00:11.466Z,14.45
2023-02-06T10:03:11.135Z,13.68
2023-02-06T10:06:19.265Z,16.00
2023-02-06T10:09:04.582Z,13.15
2023-02-06T10:11:57.988Z,10.27
2023-02-06T10:14:54.739Z,12.57
2023-02-06T10:17:35.623Z,17.42
2023-02-06T10:20:36.153Z,18.58
2023-02-06T10:23:47.434Z,11.90
2023-02-06T10:26:28.689Z,8.32
2023-02-06T10:29:00.805Z,8.25
2023-02-06T10:32:15.764Z,10.60
2023-02-06T10:35:37.188Z,7.70
2023-02-06T10:38:33.278Z,9.05
2023-02-06T10:41:35.313Z,10.68
2023-02-06T10:44:51.529Z,10.18
2023-02-06T10:47:55.770Z,8.57
2023-02-06T10:51:10.026Z,10.48
2023-02-06T10:54:31.678Z,14.30
2023-02-06T10:57:19.342Z,7.88
2023-02-06T10:59:58.602Z,6.55
2023-02-06T11:03:06.208Z,6.80
2023-02-06T11:05:45.270Z,7.00
2023-02-06T11:08:27.319Z,8.50
2023-02-06T11:11:19.364Z,8.25
2023-02-06T11:14:13.422Z,7.43
2023-02-06T11:16:51.367Z,8.18
2023-02-06T11:19:34.497Z,8.63
2023-02-06T11:22:09.458Z,6.65
2023-02-06T11:25:10.352Z,14.00
2023-02-06T11:28:12.022Z,7.32
2023-02-06T11:30:59.584Z,7.10
2023-02-06T11:33:56.695Z,8.85
2023-02-06T11:36:32.778Z,7.65
2023-02-06T11:39:27.618Z,8.98
2023-02-06T11:42:19.147Z,8.88
2023-02-06T11:44:53.916Z,7.47
2023-02-06T11:47:38.032Z,8.63
2023-02-06T11:50:13.202Z,7.50
2023-02-06T11:53:16.706Z,7.80
2023-02-06T11:56:05.976Z,10.32
2023-02-06T11:59:19.534Z,7.93
2023-02-06T12:01:54.487Z,8.25
2023-02-06T12:04:39.133Z,7.65
2023-02-06T12:07:37.940Z,7.63
2023-02-06T12:10:17.290Z,7.10
2023-02-06T12:12:55.584Z,7.30
2023-02-06T12:15:48.444Z,8.35
2023-02-06T12:18:26.209Z,7.53
2023-02-06T12:21:31.993Z,8.00
2023-02-06T12:24:20.929Z,9.10
2023-02-06T12:27:05.476Z,9.82
2023-02-06T12:30:01.933Z,6.97
2023-02-06T12:33:15.678Z,7.40
2023-02-06T12:36:20.852Z,8.02
2023-02-06T12:39:00.786Z,7.47
2023-02-06T12:42:14.699Z,7.05
2023-02-06T12:45:27.538Z,6.63
2023-02-06T12:48:21.638Z,6.82
2023-02-06T12:51:06.754Z,8.00
2023-02-06T12:54:01.714Z,8.20
2023-02-06T12:56:52.528Z,10.35
2023-02-06T13:00:13.435Z,11.27
2023-02-06T13:03:26.244Z,9.40
2023-02-06T13:06:16.041Z,8.77
2023-02-06T13:09:01.089Z,8.38
2023-02-06T13:11:40.741Z,8.77
2023-02-06T13:14:18.735Z,7.20
2023-02-06T13:17:06.935Z,8.02
2023-02-06T13:19:48.270Z,6.93
2023-02-06T13:22:45.178Z,6.95
2023-02-06T13:25:37.400Z,12.50
2023-02-06T13:28:25.604Z,7.10
2023-02-06T13:31:27.865Z,6.97
2023-02-06T13:34:03.177Z,6.07
2023-02-06T13:36:49.322Z,6.10
2023-02-06T13:39:36.237Z,5.97
2023-02-06T13:42:32.965Z,7.72
2023-02-06T13:45:28.429Z,5.75
2023-02-06T13:48:30.865Z,5.03
2023-02-06T13:51:22.829Z,4.70
2023-02-06T13:54:52.228Z,6.38
2023-02-06T13:58:12.340Z,5.68
2023-02-06T14:01:11.683Z,4.55
2023-02-06T14:03:58.207Z,6.97
2023-02-06T14:06:43.302Z,5.60
2023-02-06T14:09:44.561Z,4.95
2023-02-06T14:12:58.262Z,4.78
2023-02-06T14:16:27.889Z,4.43
2023-02-06T14:19:17.807Z,5.32
2023-02-06T14:22:24.344Z,7.20
2023-02-06T14:25:24.272Z,4.28
2023-02-06T14:28:38.388Z,4.00
2023-02-06T14:31:46.553Z,5.25
2023-02-06T14:35:12.607Z,5.93
2023-02-06T14:38:04.050Z,5.28
2023-02-06T14:40:55.093Z,6.18
2023-02-06T14:43:32.661Z,4.90
2023-02-06T14:46:14.509Z,5.15
2023-02-06T14:48:56.083Z,5.30
2023-02-06T14:51:36.497Z,5.45
2023-02-06T14:54:31.137Z,4.57
2023-02-06T14:57:16.663Z,4.68
2023-02-06T15:00:04.355Z,5.00
2023-02-06T15:03:08.269Z,4.60
2023-02-06T15:06:04.841Z,5.35
2023-02-06T15:08:50.883Z,4.55
2023-02-06T15:11:26.730Z,4.40
2023-02-06T15:14:17.401Z,5.88
2023-02-06T15:16:52.366Z,5.18
2023-02-06T15:19:30.569Z,6.85
2023-02-06T15:22:25.168Z,9.32
2023-02-06T15:25:02.814Z,5.07
2023-02-06T15:27:48.966Z,6.82
2023-02-06T15:30:28.403Z,5.15
2023-02-06T15:33:03.007Z,4.75
2023-02-06T15:35:48.516Z,6.05
2023-02-06T15:38:25.652Z,5.38
2023-02-06T15:41:04.309Z,7.43
2023-02-06T15:43:38.064Z,6.07
2023-02-06T15:46:11.785Z,6.55
2023-02-06T15:48:49.006Z,5.50
2023-02-06T15:51:26.079Z,6.70
2023-02-06T15:54:18.508Z,6.47
2023-02-06T15:57:02.679Z,8.05
2023-02-06T15:59:57.138Z,6.05
2023-02-06T16:02:34.268Z,5.00
2023-02-06T16:05:35.908Z,6.50
2023-02-06T16:08:17.855Z,6.38
2023-02-06T16:10:57.390Z,6.32
2023-02-06T16:13:40.503Z,7.22
2023-02-06T16:16:16.648Z,10.63
2023-02-06T16:18:57.436Z,10.00
2023-02-06T16:21:32.521Z,15.57
2023-02-06T16:24:17.619Z,7.65
2023-02-06T16:26:54.844Z,13.43
2023-02-06T16:29:31.728Z,7.00
2023-02-06T16:32:18.800Z,9.20
2023-02-06T16:35:01.514Z,6.85
2023-02-06T16:37:35.136Z,6.13
2023-02-06T16:40:08.062Z,5.85
2023-02-06T16:42:41.865Z,5.72
2023-02-06T16:45:22.929Z,5.13
2023-02-06T16:47:57.471Z,5.47
2023-02-06T16:50:30.259Z,5.93
2023-02-06T16:53:04.026Z,5.50
2023-02-06T16:55:43.279Z,5.70
2023-02-06T16:58:19.968Z,7.45
2023-02-06T17:00:54.680Z,5.43
2023-02-06T17:03:27.051Z,6.60
2023-02-06T17:05:59.842Z,8.20
2023-02-06T17:08:39.797Z,6.55
2023-02-06T17:11:14.062Z,8.43
2023-02-06T17:13:46.956Z,7.03
2023-02-06T17:16:21.976Z,8.75
2023-02-06T17:18:55.617Z,6.00
2023-02-06T17:21:32.698Z,6.53
2023-02-06T17:24:05.437Z,6.18
2023-02-06T17:26:37.760Z,5.85
2023-02-06T17:29:12.901Z,5.50
2023-02-06T17:31:45.299Z,7.07
2023-02-06T17:34:17.896Z,5.93
2023-02-06T17:36:50.130Z,5.55
2023-02-06T17:39:23.261Z,5.30
2023-02-06T17:41:55.539Z,5.57
2023-02-06T17:44:27.818Z,4.95
2023-02-06T17:46:59.966Z,4.97
2023-02-06T17:49:32.215Z,4.82
2023-02-06T17:52:04.812Z,5.57
2023-02-06T17:54:37.377Z,4.75
2023-02-06T17:57:09.609Z,4.78
2023-02-06T17:59:42.179Z,5.15
2023-02-06T18:02:17.107Z,5.60
2023-02-06T18:04:51.181Z,4.60
2023-02-06T18:07:25.044Z,5.07
2023-02-06T18:09:58.038Z,6.07
2023-02-06T18:12:37.856Z,4.97
2023-02-06T18:15:10.710Z,5.45
2023-02-06T18:17:46.547Z,6.32
2023-02-06T18:20:19.859Z,5.38
2023-02-06T18:22:52.582Z,6.00
2023-02-06T18:25:24.766Z,5.90
2023-02-06T18:27:56.892Z,8.88
2023-02-06T18:30:29.341Z,6.45
2023-02-06T18:33:02.237Z,6.10
2023-02-06T18:35:44.518Z,6.47
2023-02-06T18:38:17.758Z,7.93
2023-02-06T18:40:50.310Z,6.60
2023-02-06T18:43:27.637Z,6.28
2023-02-06T18:46:07.589Z,6.00
2023-02-06T18:48:39.818Z,6.22
2023-02-06T18:51:12.020Z,11.13
2023-02-06T18:53:44.504Z,6.43
2023-02-06T18:56:17.001Z,8.20
2023-02-06T18:58:50.073Z,7.65
2023-02-06T19:01:24.639Z,6.03
2023-02-06T19:03:58.277Z,7.60
2023-02-06T19:06:36.833Z,7.85
2023-02-06T19:09:14.836Z,6.75
2023-02-06T19:11:48.865Z,7.63
2023-02-06T19:14:25.748Z,9.82
2023-02-06T19:16:59.786Z,7.80
2023-02-06T19:19:32.890Z,11.60
2023-02-06T19:22:06.615Z,7.38
2023-02-06T19:24:42.798Z,6.88
2023-02-06T19:27:16.393Z,7.88
2023-02-06T19:29:50.102Z,6.20
2023-02-06T19:32:24.614Z,7.82
2023-02-06T19:35:00.288Z,6.22
2023-02-06T19:37:33.991Z,8.05
2023-02-06T19:40:07.822Z,6.10
2023-02-06T19:42:41.554Z,6.80
2023-02-06T19:45:14.597Z,6.22
2023-02-06T19:47:47.993Z,6.18
2023-02-06T19:50:20.999Z,6.20
2023-02-06T19:52:54.146Z,7.07
2023-02-06T19:55:28.096Z,7.72
2023-02-06T19:58:01.128Z,7.40
2023-02-06T20:00:33.828Z,6.75
2023-02-06T20:03:08.071Z,6.90
2023-02-06T20:05:40.928Z,8.60
2023-02-06T20:08:19.432Z,14.95
2023-02-06T20:10:54.088Z,6.85
2023-02-06T20:13:28.470Z,8.55
2023-02-06T20:16:04.337Z,6.35
2023-02-06T20:18:47.260Z,7.43
2023-02-06T20:21:38.760Z,8.95
2023-02-06T20:24:21.229Z,7.20
2023-02-06T20:27:03.164Z,7.97
2023-02-06T20:29:41.872Z,7.40
2023-02-06T20:32:16.741Z,10.30
2023-02-06T20:34:50.443Z,7.28
2023-02-06T20:37:23.131Z,7.85
2023-02-06T20:39:56.164Z,7.30
2023-02-06T20:42:32.231Z,7.53
2023-02-06T20:45:06.842Z,7.35
2023-02-06T20:47:39.935Z,8.00
2023-02-06T20:50:13.885Z,10.90
2023-02-06T20:52:47.712Z,11.25
2023-02-06T20:55:20.958Z,7.93
2023-02-06T20:57:53.188Z,8.25
2023-02-06T21:00:25.933Z,8.90
2023-02-06T21:02:58.792Z,7.82
2023-02-06T21:05:32.778Z,8.50
2023-02-06T21:08:05.697Z,7.65
2023-02-06T21:10:38.767Z,8.73
2023-02-06T21:13:11.365Z,8.45
2023-02-06T21:15:49.007Z,10.30
2023-02-06T21:18:24.388Z,8.35
2023-02-06T21:21:11.399Z,9.32
2023-02-06T21:23:47.881Z,10.52
2023-02-06T21:26:24.098Z,9.23
2023-02-06T21:29:00.215Z,9.45
2023-02-06T21:31:38.135Z,8.30
2023-02-06T21:34:15.064Z,8.77
2023-02-06T21:36:51.232Z,9.55
2023-02-06T21:39:27.348Z,8.90
2023-02-06T21:42:02.203Z,7.88
2023-02-06T21:44:37.444Z,8.48
2023-02-06T21:47:10.031Z,7.50
2023-02-06T21:49:42.558Z,8.50
2023-02-06T21:52:14.813Z,7.40
2023-02-06T21:54:46.995Z,8.95
2023-02-06T21:57:19.114Z,8.05
2023-02-06T21:59:51.310Z,9.48
2023-02-06T22:02:23.745Z,13.52
2023-02-06T22:04:56.233Z,13.23
2023-02-06T22:07:30.675Z,10.80
2023-02-06T22:10:06.543Z,8.70
2023-02-06T22:12:39.823Z,8.52
2023-02-06T22:15:12.019Z,7.75
2023-02-06T22:17:44.236Z,9.10
2023-02-06T22:20:17.262Z,8.40
2023-02-06T22:22:49.751Z,8.65
2023-02-06T22:25:21.992Z,7.95
2023-02-06T22:27:54.615Z,9.32
2023-02-06T22:30:27.000Z,9.80
2023-02-06T22:32:59.078Z,9.00
2023-02-06T22:35:31.186Z,9.38
2023-02-06T22:38:03.188Z,9.88
2023-02-06T22:40:35.419Z,8.23
2023-02-06T22:43:07.796Z,9.07
2023-02-06T22:45:40.120Z,9.40
2023-02-06T22:48:12.607Z,8.77
2023-02-06T22:50:45.015Z,8.60
2023-02-06T22:53:32.577Z,11.10
2023-02-06T22:56:26.760Z,9.45
2023-02-06T22:59:24.987Z,11.45
2023-02-06T23:01:58.780Z,11.50
2023-02-06T23:04:34.752Z,11.93
2023-02-06T23:07:09.377Z,9.13
2023-02-06T23:09:41.616Z,9.95
2023-02-06T23:12:13.809Z,9.23
2023-02-06T23:14:47.009Z,9.70
2023-02-06T23:17:19.088Z,9.27
2023-02-06T23:19:51.187Z,9.63
2023-02-06T23:22:23.149Z,13.27
2023-02-06T23:24:55.215Z,9.50
2023-02-06T23:27:29.246Z,10.57
2023-02-06T23:30:01.645Z,9.30
2023-02-06T23:32:33.828Z,10.48
2023-02-06T23:35:07.048Z,13.43
2023-02-06T23:37:39.302Z,10.77
2023-02-06T23:40:11.466Z,10.13
2023-02-06T23:42:44.125Z,11.02
2023-02-06T23:45:16.345Z,11.35
2023-02-06T23:47:48.505Z,10.80
2023-02-06T23:50:21.884Z,14.68
2023-02-06T23:52:55.464Z,8.95
2023-02-06T23:55:28.499Z,8.50
2023-02-06T23:58:01.543Z,7.45
